createdAt,value
2023-04-01T00:00:24.156Z,15.43
2023-04-01T00:05:26.252Z,18.88
2023-04-01T00:10:27.716Z,19.08
2023-04-01T00:15:29.232Z,18.65
2023-04-01T00:20:30.966Z,20.48
2023-04-01T00:25:32.823Z,17.77
2023-04-01T00:30:34.567Z,20.73
2023-04-01T00:35:36.360Z,19.33
2023-04-01T00:40:39.943Z,16.33
2023-04-01T00:45:43.615Z,16.52
2023-04-01T00:50:50.222Z,16.23
2023-04-01T00:55:58.210Z,18.65
2023-04-01T01:00:59.797Z,17.63
2023-04-01T01:06:36.097Z,17.55
2023-04-01T01:11:49.135Z,18.77
2023-04-01T01:16:56.702Z,19.10
2023-04-01T01:22:21.276Z,18.25
2023-04-01T01:27:22.742Z,19.90
2023-04-01T01:33:00.510Z,14.50
2023-04-01T01:38:13.769Z,15.57
2023-04-01T01:43:17.284Z,19.77
2023-04-01T01:48:18.773Z,23.45
2023-04-01T01:53:20.442Z,21.85
2023-04-01T01:58:41.262Z,24.55
2023-04-01T02:03:42.905Z,23.30
2023-04-01T02:08:48.535Z,22.92
2023-04-01T02:13:54.842Z,26.90
2023-04-01T02:18:56.540Z,23.33
2023-04-01T02:23:58.004Z,24.75
2023-04-01T02:28:59.468Z,26.52
2023-04-01T02:34:00.917Z,28.65
2023-04-01T02:39:03.445Z,27.10
2023-04-01T02:44:05.348Z,23.58
2023-04-01T02:49:06.873Z,23.17
2023-04-01T02:54:08.342Z,23.90
2023-04-01T02:59:09.842Z,25.17
2023-04-01T03:04:11.436Z,19.17
2023-04-01T03:09:12.906Z,20.42
2023-04-01T03:14:14.352Z,13.23
2023-04-01T03:19:15.926Z,15.00
2023-04-01T03:24:17.461Z,12.43
2023-04-01T03:29:18.929Z,12.13
2023-04-01T03:34:20.433Z,13.35
2023-04-01T03:39:21.901Z,9.23
2023-04-01T03:44:23.376Z,8.13
2023-04-01T03:49:24.864Z,12.48
2023-04-01T03:54:27.555Z,10.98
2023-04-01T03:59:29.001Z,11.82
2023-04-01T04:04:31.055Z,7.63
2023-04-01T04:09:32.679Z,15.25
2023-04-01T04:14:34.142Z,10.55
2023-04-01T04:19:35.615Z,10.27
2023-04-01T04:24:37.181Z,9.02
2023-04-01T04:29:38.633Z,8.45
2023-04-01T04:34:40.189Z,7.97
2023-04-01T04:39:41.647Z,11.15
2023-04-01T04:44:43.108Z,10.68
2023-04-01T04:49:44.610Z,6.90
2023-04-01T04:54:46.332Z,7.72
2023-04-01T04:59:47.795Z,6.70
2023-04-01T05:04:49.240Z,7.55
2023-04-01T05:09:50.890Z,6.65
2023-04-01T05:14:52.381Z,7.30
2023-04-01T05:19:53.924Z,9.82
2023-04-01T05:24:55.396Z,10.32
2023-04-01T05:29:57.359Z,7.65
2023-04-01T05:34:58.811Z,6.30
2023-04-01T05:40:00.401Z,7.43
2023-04-01T05:45:01.866Z,9.10
2023-04-01T05:50:03.352Z,7.03
2023-04-01T05:55:05.505Z,8.70
2023-04-01T06:00:07.689Z,15.40
2023-04-01T06:05:13.467Z,8.73
2023-04-01T06:10:18.737Z,4.65
2023-04-01T06:15:37.229Z,12.77
2023-04-01T06:21:12.481Z,14.63
2023-04-01T06:26:16.490Z,9.95
2023-04-01T06:31:35.056Z,6.45
2023-04-01T06:36:58.216Z,6.25
2023-04-01T06:42:21.015Z,11.52
2023-04-01T06:47:24.944Z,7.47
2023-04-01T06:52:40.910Z,6.50
2023-04-01T06:57:43.669Z,6.68
2023-04-01T07:02:54.636Z,6.47
2023-04-01T07:07:57.656Z,7.95
2023-04-01T07:12:59.765Z,10.25
2023-04-01T07:18:04.239Z,7.28
2023-04-01T07:23:08.081Z,5.88
2023-04-01T07:28:14.971Z,6.80
2023-04-01T07:33:20.886Z,8.20
2023-04-01T07:38:31.257Z,8.23
2023-04-01T07:43:51.101Z,6.70
2023-04-01T07:49:14.765Z,8.50
2023-04-01T07:54:37.562Z,5.93
2023-04-01T07:59:52.853Z,14.48
2023-04-01T08:05:00.194Z,6.72
2023-04-01T08:10:13.525Z,12.00
2023-04-01T08:15:23.028Z,5.55
2023-04-01T08:20:56.693Z,9.68
2023-04-01T08:26:03.689Z,9.88
2023-04-01T08:31:07.064Z,9.88
2023-04-01T08:36:14.921Z,9.30
2023-04-01T08:42:02.376Z,8.45
2023-04-01T08:47:34.969Z,10.80
2023-04-01T08:52:37.559Z,9.95
2023-04-01T08:58:02.547Z,5.93
2023-04-01T09:03:19.899Z,11.20
2023-04-01T09:08:42.494Z,8.88
2023-04-01T09:19:11.117Z,9.77
2023-04-01T09:24:31.479Z,7.20
2023-04-01T09:29:56.970Z,11.10
2023-04-01T09:35:06.736Z,7.50
2023-04-01T09:40:26.423Z,16.77
2023-04-01T09:45:52.522Z,10.85
2023-04-01T09:51:12.999Z,11.18
2023-04-01T09:56:40.867Z,10.30
2023-04-01T10:02:18.812Z,15.65
2023-04-01T10:07:32.020Z,9.35
2023-04-01T10:12:54.130Z,10.63
2023-04-01T10:18:10.682Z,10.35
2023-04-01T10:23:33.633Z,13.32
2023-04-01T10:28:49.349Z,11.82
2023-04-01T10:34:06.922Z,11.68
2023-04-01T10:39:26.113Z,11.82
2023-04-01T10:44:57.525Z,9.73
2023-04-01T10:50:21.040Z,9.82
2023-04-01T10:55:53.153Z,11.80
2023-04-01T11:01:10.300Z,12.80
2023-04-01T11:06:55.608Z,11.13
2023-04-01T11:12:20.823Z,14.27
2023-04-01T11:18:03.368Z,15.90
2023-04-01T11:23:08.825Z,15.15
2023-04-01T11:28:25.401Z,15.43
2023-04-01T11:33:32.887Z,14.15
2023-04-01T11:39:01.409Z,17.05
2023-04-01T11:44:18.899Z,15.05
2023-04-01T11:49:33.035Z,18.60
2023-04-01T11:54:59.599Z,17.33
2023-04-01T12:00:24.736Z,24.08
2023-04-01T12:05:35.573Z,16.08
2023-04-01T12:11:06.518Z,19.52
2023-04-01T12:16:26.962Z,21.13
2023-04-01T12:21:33.624Z,14.60
2023-04-01T12:26:39.708Z,21.08
2023-04-01T12:31:59.341Z,16.35
2023-04-01T12:37:09.795Z,17.08
2023-04-01T12:42:36.976Z,13.98
2023-04-01T12:48:16.153Z,16.58
2023-04-01T12:53:35.714Z,13.10
2023-04-01T12:59:03.368Z,16.27
2023-04-01T13:04:24.348Z,18.90
2023-04-01T13:09:52.169Z,12.07
2023-04-01T13:15:11.864Z,17.13
2023-04-01T13:20:35.005Z,15.15
2023-04-01T13:26:13.683Z,15.38
2023-04-01T13:31:24.872Z,24.92
2023-04-01T13:36:34.403Z,12.65
2023-04-01T13:42:00.412Z,9.73
2023-04-01T13:47:39.222Z,18.50
2023-04-01T13:53:05.875Z,14.43
2023-04-01T13:58:21.215Z,12.38
2023-04-01T14:03:40.007Z,14.20
2023-04-01T14:08:56.929Z,9.88
2023-04-01T14:14:35.602Z,14.07
2023-04-01T14:19:54.661Z,11.63
2023-04-01T14:25:15.941Z,13.40
2023-04-01T14:30:21.569Z,16.33
2023-04-01T14:35:51.161Z,16.48
2023-04-01T14:41:21.554Z,12.88
2023-04-01T14:46:52.511Z,17.70
2023-04-01T14:51:54.037Z,9.25
2023-04-01T14:57:15.596Z,15.93
2023-04-01T15:02:52.055Z,11.50
2023-04-01T15:08:26.038Z,10.63
2023-04-01T15:13:30.846Z,11.63
2023-04-01T15:19:06.280Z,14.73
2023-04-01T15:29:43.342Z,14.45
2023-04-01T15:34:52.891Z,16.98
2023-04-01T15:40:16.669Z,16.15
2023-04-01T15:45:25.086Z,13.57
2023-04-01T15:50:32.353Z,10.90
2023-04-01T15:55:51.257Z,15.55
2023-04-01T16:01:34.253Z,23.85
2023-04-01T16:06:48.380Z,24.67
2023-04-01T16:12:28.862Z,13.68
2023-04-01T16:17:50.569Z,10.23
2023-04-01T16:23:03.399Z,9.25
2023-04-01T16:28:33.930Z,13.32
2023-04-01T16:33:49.165Z,14.88
2023-04-01T16:39:08.633Z,16.00
2023-04-01T16:44:26.145Z,14.20
2023-04-01T16:49:40.051Z,13.30
2023-04-01T16:54:45.673Z,14.98
2023-04-01T17:00:01.797Z,19.63
2023-04-01T17:10:30.430Z,16.13
2023-04-01T17:15:41.065Z,16.48
2023-04-01T17:20:54.982Z,16.27
2023-04-01T17:26:31.693Z,11.32
2023-04-01T17:31:51.933Z,6.50
2023-04-01T17:37:16.970Z,19.38
2023-04-01T17:42:38.719Z,18.42
2023-04-01T17:47:48.990Z,15.23
2023-04-01T17:53:13.088Z,15.07
2023-04-01T17:58:44.155Z,9.73
2023-04-01T18:04:09.098Z,9.98
2023-04-01T18:09:32.080Z,10.77
2023-04-01T18:14:48.903Z,15.57
2023-04-01T18:20:29.801Z,8.50
2023-04-01T18:25:37.075Z,7.00
2023-04-01T18:30:38.530Z,12.55
2023-04-01T18:35:50.323Z,12.82
2023-04-01T18:41:20.025Z,23.65
2023-04-01T18:46:41.059Z,8.65
2023-04-01T18:51:58.265Z,8.55
2023-04-01T18:57:05.117Z,22.52
2023-04-01T19:02:15.587Z,8.10
2023-04-01T19:07:43.293Z,7.57
2023-04-01T19:12:52.557Z,16.45
2023-04-01T19:18:41.949Z,9.48
2023-04-01T19:24:05.133Z,7.05
2023-04-01T19:29:18.018Z,8.63
2023-04-01T19:34:44.927Z,9.48
2023-04-01T19:40:03.183Z,10.73
2023-04-01T19:45:29.770Z,6.45
2023-04-01T19:50:51.468Z,8.43
2023-04-01T19:56:12.888Z,8.20
2023-04-01T20:01:29.643Z,14.10
2023-04-01T20:06:57.094Z,12.18
2023-04-01T20:12:23.653Z,10.63
2023-04-01T20:17:42.294Z,12.13
2023-04-01T20:22:46.514Z,14.38
2023-04-01T20:27:53.083Z,10.07
2023-04-01T20:33:02.684Z,12.40
2023-04-01T20:38:09.809Z,12.80
2023-04-01T20:43:31.277Z,9.48
2023-04-01T20:48:47.159Z,7.53
2023-04-01T20:54:06.722Z,8.52
2023-04-01T20:59:20.693Z,9.60
2023-04-01T21:04:28.972Z,13.77
2023-04-01T21:09:48.124Z,13.13
2023-04-01T21:15:01.219Z,4.82
2023-04-01T21:20:44.941Z,9.68
2023-04-01T21:26:06.250Z,6.22
2023-04-01T21:31:16.852Z,6.93
2023-04-01T21:36:21.047Z,7.60
2023-04-01T21:42:03.570Z,6.40
2023-04-01T21:47:30.832Z,9.52
2023-04-01T21:52:55.731Z,10.23
2023-04-01T21:58:31.037Z,9.30
2023-04-01T22:03:50.942Z,8.48
2023-04-01T22:09:10.594Z,4.95
2023-04-01T22:14:35.131Z,6.32
2023-04-01T22:19:47.417Z,6.55
2023-04-01T22:25:10.287Z,8.88
2023-04-01T22:30:24.460Z,10.27
2023-04-01T22:35:43.189Z,8.20
2023-04-01T22:40:59.377Z,5.85
2023-04-01T22:46:25.516Z,10.02
2023-04-01T22:51:46.861Z,8.65
2023-04-01T22:56:54.477Z,7.18
2023-04-01T23:01:59.026Z,6.95
2023-04-01T23:07:03.160Z,4.97
2023-04-01T23:12:06.362Z,8.00
2023-04-01T23:17:19.909Z,9.73
2023-04-01T23:22:32.486Z,6.45
2023-04-01T23:27:39.934Z,6.88
2023-04-01T23:32:41.399Z,14.38
2023-04-01T23:37:42.863Z,11.98
2023-04-01T23:42:44.399Z,6.07
2023-04-01T23:47:46.047Z,8.63
2023-04-01T23:52:55.535Z,6.45
2023-04-01T23:58:05.866Z,5.30
